createdAt,value
2024-04-12T00:01:43.364Z,37.70
2024-04-12T00:07:01.126Z,40.70
2024-04-12T00:12:02.834Z,52.10
2024-04-12T00:17:17.291Z,37.90
2024-04-12T00:22:19.728Z,33.80
2024-04-12T00:27:22.878Z,43.20
2024-04-12T00:32:27.573Z,34.80
2024-04-12T00:37:34.315Z,46.80
2024-04-12T00:42:36.155Z,37.10
2024-04-12T00:47:38.436Z,34.40
2024-04-12T00:52:44.672Z,39.30
2024-04-12T00:57:46.837Z,43.10
2024-04-12T01:02:50.357Z,48.40
2024-04-12T01:07:57.640Z,43.40
2024-04-12T01:13:04.119Z,39.80
2024-04-12T01:18:16.568Z,41.40
2024-04-12T01:23:19.000Z,41.70
2024-04-12T01:28:21.018Z,56.10
2024-04-12T01:33:22.892Z,50.60
2024-04-12T01:38:24.890Z,45.70
2024-04-12T01:43:28.603Z,39.80
2024-04-12T01:48:32.091Z,38.90
2024-04-12T01:53:38.739Z,49.40
2024-04-12T01:58:42.271Z,44.40
2024-04-12T02:03:44.796Z,42.40
2024-04-12T02:08:46.851Z,39.60
2024-04-12T02:13:48.614Z,41.10
2024-04-12T02:18:50.352Z,41.60
2024-04-12T02:23:54.198Z,48.60
2024-04-12T02:29:00.319Z,46.20
2024-04-12T02:34:03.489Z,58.40
2024-04-12T02:39:09.295Z,39.70
2024-04-12T02:44:11.309Z,38.60
2024-04-12T02:49:14.179Z,45.60
2024-04-12T02:54:17.703Z,37.60
2024-04-12T02:59:19.547Z,37.80
2024-04-12T03:04:21.863Z,37.10
2024-04-12T03:09:28.422Z,38.20
2024-04-12T03:14:31.900Z,51.50
2024-04-12T03:19:33.819Z,44.40
2024-04-12T03:24:35.521Z,47.10
2024-04-12T03:29:37.489Z,39.50
2024-04-12T03:34:39.257Z,42.00
2024-04-12T03:39:40.919Z,58.70
2024-04-12T03:44:44.064Z,47.70
2024-04-12T03:49:46.024Z,44.60
2024-04-12T03:54:48.970Z,43.60
2024-04-12T03:59:58.561Z,42.30
2024-04-12T04:05:15.083Z,57.20
2024-04-12T04:10:21.694Z,49.70
2024-04-12T04:15:27.217Z,46.90
2024-04-12T04:20:29.645Z,45.50
2024-04-12T04:25:32.991Z,47.50
2024-04-12T04:30:36.554Z,64.50
2024-04-12T04:35:38.426Z,56.80
2024-04-12T04:40:40.165Z,52.40
2024-04-12T04:45:42.023Z,51.40
2024-04-12T04:50:44.760Z,47.10
2024-04-12T04:55:46.601Z,70.10
2024-04-12T05:00:50.677Z,64.10
2024-04-12T05:10:56.865Z,52.00
2024-04-12T05:15:59.188Z,47.90
2024-04-12T05:21:01.249Z,58.50
2024-04-12T05:26:03.237Z,44.20
2024-04-12T05:31:13.106Z,46.90
2024-04-12T05:36:15.684Z,45.30
2024-04-12T05:41:17.439Z,35.50
2024-04-12T05:46:23.651Z,34.30
2024-04-12T05:51:26.331Z,37.20
2024-04-12T05:56:30.289Z,40.30
2024-04-12T06:01:35.009Z,36.20
2024-04-12T06:06:36.956Z,37.00
2024-04-12T06:11:38.686Z,32.30
2024-04-12T06:16:41.360Z,30.00
2024-04-12T06:21:46.839Z,37.00
2024-04-12T06:26:49.244Z,35.20
2024-04-12T06:31:51.805Z,27.20
2024-04-12T06:37:07.164Z,24.80
2024-04-12T06:42:10.237Z,31.40
2024-04-12T06:47:14.608Z,28.20
2024-04-12T06:52:22.138Z,28.90
2024-04-12T06:57:26.487Z,32.70
2024-04-12T07:02:31.843Z,21.30
2024-04-12T07:07:34.582Z,22.50
2024-04-12T07:12:39.239Z,20.60
2024-04-12T07:17:41.396Z,17.90
2024-04-12T07:22:43.497Z,15.50
2024-04-12T07:27:49.317Z,15.10
2024-04-12T07:32:51.867Z,14.30
2024-04-12T07:38:03.595Z,13.90
2024-04-12T07:43:11.523Z,16.70
2024-04-12T07:48:23.639Z,16.20
2024-04-12T07:53:27.439Z,11.10
2024-04-12T07:58:35.450Z,13.30
2024-04-12T08:03:38.852Z,13.20
2024-04-12T08:08:46.791Z,13.60
2024-04-12T08:13:51.826Z,11.00
2024-04-12T08:18:56.749Z,17.40
2024-04-12T08:23:59.852Z,12.60
2024-04-12T08:29:07.943Z,14.70
2024-04-12T08:34:15.441Z,17.70
2024-04-12T08:39:27.553Z,9.30
2024-04-12T08:44:32.709Z,10.70
2024-04-12T08:49:34.544Z,9.80
2024-04-12T08:54:42.848Z,7.70
2024-04-12T08:59:48.293Z,6.30
2024-04-12T09:04:53.606Z,30.00
2024-04-12T09:09:55.826Z,7.00
2024-04-12T09:15:00.320Z,9.70
2024-04-12T09:20:05.247Z,8.50
2024-04-12T09:25:15.929Z,10.70
2024-04-12T09:30:36.418Z,9.10
2024-04-12T09:35:40.642Z,8.40
2024-04-12T09:40:50.428Z,8.00
2024-04-12T09:46:06.864Z,8.50
2024-04-12T09:51:27.886Z,7.00
2024-04-12T09:56:49.934Z,7.20
2024-04-12T10:02:14.151Z,6.90
2024-04-12T10:07:39.146Z,6.40
2024-04-12T10:13:00.588Z,5.10
2024-04-12T10:18:25.666Z,9.00
2024-04-12T10:23:49.839Z,6.70
2024-04-12T10:29:13.001Z,5.30
2024-04-12T10:34:35.754Z,7.90
2024-04-12T10:39:45.632Z,6.40
2024-04-12T10:44:57.634Z,5.40
2024-04-12T10:49:59.740Z,6.20
2024-04-12T10:55:12.177Z,6.50
2024-04-12T11:00:29.096Z,7.80
2024-04-12T11:15:43.945Z,11.20
2024-04-12T11:21:14.665Z,8.30
2024-04-12T11:26:39.145Z,8.70
2024-04-12T11:31:41.297Z,7.80
2024-04-12T11:36:45.858Z,9.60
2024-04-12T11:41:48.823Z,8.00
2024-04-12T11:46:52.100Z,9.60
2024-04-12T11:51:56.762Z,9.00
2024-04-12T11:57:00.791Z,7.50
2024-04-12T12:02:05.429Z,8.00
2024-04-12T12:07:12.258Z,3.80
2024-04-12T12:12:14.779Z,5.70
2024-04-12T12:17:19.583Z,9.80
2024-04-12T12:22:22.923Z,11.40
2024-04-12T12:27:25.337Z,6.50
2024-04-12T12:32:27.758Z,7.90
2024-04-12T12:37:30.348Z,11.30
2024-04-12T12:42:33.457Z,7.60
2024-04-12T12:47:36.710Z,6.30
2024-04-12T12:52:38.614Z,9.00
2024-04-12T12:57:40.598Z,8.90
2024-04-12T13:02:43.332Z,6.50
2024-04-12T13:07:45.398Z,4.80
2024-04-12T13:12:52.510Z,7.90
2024-04-12T13:17:54.431Z,4.70
2024-04-12T13:22:56.340Z,6.60
2024-04-12T13:28:01.952Z,6.60
2024-04-12T13:38:14.982Z,10.00
2024-04-12T13:43:18.128Z,6.30
2024-04-12T13:48:38.771Z,8.90
2024-04-12T13:53:44.997Z,7.40
2024-04-12T13:58:54.607Z,8.60
2024-04-12T14:04:05.096Z,5.00
2024-04-12T14:09:10.806Z,7.80
2024-04-12T14:14:12.697Z,6.10
2024-04-12T14:19:23.693Z,3.80
2024-04-12T14:24:44.427Z,6.90
2024-04-12T14:29:46.845Z,8.30
2024-04-12T14:34:58.228Z,7.70
2024-04-12T14:40:09.088Z,6.70
2024-04-12T14:45:10.815Z,6.80
2024-04-12T14:50:12.767Z,7.90
2024-04-12T14:55:16.904Z,6.30
2024-04-12T15:00:20.927Z,6.00
2024-04-12T15:05:41.578Z,9.10
2024-04-12T15:11:02.570Z,5.30
2024-04-12T15:16:22.998Z,3.60
2024-04-12T15:21:43.588Z,4.40
2024-04-12T15:27:03.913Z,4.70
2024-04-12T15:32:24.539Z,6.30
2024-04-12T15:37:45.371Z,6.00
2024-04-12T15:43:05.971Z,5.80
2024-04-12T15:48:13.090Z,5.00
2024-04-12T15:53:26.781Z,6.10
2024-04-12T15:58:48.946Z,3.80
2024-04-12T16:04:09.314Z,7.00
2024-04-12T16:09:29.770Z,8.10
2024-04-12T16:14:31.687Z,4.60
2024-04-12T16:19:34.116Z,3.40
2024-04-12T16:24:36.173Z,6.00
2024-04-12T16:29:38.131Z,11.10
2024-04-12T16:34:39.950Z,4.30
2024-04-12T16:39:42.009Z,8.80
2024-04-12T16:44:43.888Z,7.70
2024-04-12T16:49:45.786Z,6.60
2024-04-12T16:54:47.850Z,5.90
2024-04-12T16:59:49.871Z,7.40
2024-04-12T17:04:54.067Z,6.70
2024-04-12T17:09:58.913Z,11.50
2024-04-12T17:15:00.638Z,7.50
2024-04-12T17:20:04.060Z,6.60
2024-04-12T17:25:09.960Z,8.10
2024-04-12T17:30:12.923Z,6.50
2024-04-12T17:35:16.349Z,7.20
2024-04-12T17:40:21.121Z,8.40
2024-04-12T17:45:24.131Z,7.90
2024-04-12T17:50:26.473Z,11.80
2024-04-12T17:55:28.330Z,14.40
2024-04-12T18:00:30.080Z,8.70
2024-04-12T18:05:31.821Z,7.30
2024-04-12T18:10:33.525Z,15.20
2024-04-12T18:15:38.927Z,8.60
2024-04-12T18:20:42.605Z,7.40
2024-04-12T18:25:44.530Z,10.40
2024-04-12T18:30:46.242Z,7.80
2024-04-12T18:36:02.643Z,7.30
2024-04-12T18:41:24.984Z,17.40
2024-04-12T18:46:26.758Z,9.00
2024-04-12T18:51:28.452Z,9.10
2024-04-12T18:56:30.460Z,10.90
2024-04-12T19:01:32.296Z,9.60
2024-04-12T19:06:34.457Z,9.90
2024-04-12T19:11:36.361Z,15.80
2024-04-12T19:16:41.654Z,10.90
2024-04-12T19:21:44.942Z,9.60
2024-04-12T19:26:46.695Z,13.80
2024-04-12T19:31:51.541Z,13.40
2024-04-12T19:36:53.474Z,15.80
2024-04-12T19:41:57.195Z,18.80
2024-04-12T19:46:59.358Z,17.80
2024-04-12T19:52:04.870Z,17.00
2024-04-12T19:57:06.981Z,14.10
2024-04-12T20:02:09.022Z,16.40
2024-04-12T20:07:10.960Z,13.40
2024-04-12T20:12:13.014Z,24.20
2024-04-12T20:17:22.310Z,23.20
2024-04-12T20:22:24.177Z,20.80
2024-04-12T20:27:25.902Z,20.00
2024-04-12T20:32:37.362Z,18.40
2024-04-12T20:37:39.555Z,15.90
2024-04-12T20:42:41.348Z,18.00
2024-04-12T20:47:43.228Z,19.80
2024-04-12T20:52:45.062Z,15.10
2024-04-12T20:57:46.998Z,18.30
2024-04-12T21:02:48.652Z,24.40
2024-04-12T21:07:58.208Z,19.10
2024-04-12T21:12:59.967Z,16.00
2024-04-12T21:18:01.825Z,135.50
2024-04-12T21:23:09.163Z,34.10
2024-04-12T21:28:24.558Z,19.90
2024-04-12T21:33:27.969Z,23.90
2024-04-12T21:38:32.150Z,22.90
2024-04-12T21:43:37.379Z,34.00
2024-04-12T21:48:41.627Z,25.40
2024-04-12T21:53:43.477Z,28.10
2024-04-12T21:58:45.369Z,26.30
2024-04-12T22:03:47.387Z,27.40
2024-04-12T22:08:52.318Z,26.30
2024-04-12T22:13:54.086Z,29.50
2024-04-12T22:18:56.051Z,30.00
2024-04-12T22:24:00.239Z,30.00
2024-04-12T22:29:02.063Z,27.20
2024-04-12T22:34:03.801Z,32.80
2024-04-12T22:39:05.616Z,37.40
2024-04-12T22:44:07.523Z,34.60
2024-04-12T22:49:09.189Z,31.40
2024-04-12T22:54:10.959Z,30.70
2024-04-12T22:59:12.759Z,35.60
2024-04-12T23:04:14.526Z,30.50
2024-04-12T23:09:20.383Z,27.00
2024-04-12T23:14:22.511Z,32.90
2024-04-12T23:19:24.452Z,34.50
2024-04-12T23:24:26.230Z,42.50
2024-04-12T23:29:28.102Z,33.80
2024-04-12T23:34:29.884Z,40.40
2024-04-12T23:39:31.784Z,38.80
2024-04-12T23:44:34.150Z,45.90
2024-04-12T23:49:35.879Z,39.00
2024-04-12T23:54:38.259Z,40.40
2024-04-12T23:59:40.101Z,37.30
